Welcome to Des Moines Iowa Weather. I am an independent private personal weather station on the Northwest Side of Des Moines, Iowa. Just East of Windsor Heights and just West of Glendale . This site is also mobile friendly.

There are no active watches, warnings or advisories


Visit our other weather sites:

Historical Data

Weather Station Setup



Weather Underground History page Text

Daily Summary for November 6, 2017 Units:  English    Metric   Both
« Previous Day
Next Day »
Daily Weekly Monthly Yearly Custom
  High: Low: Average:
Temperature: 39.0 °F 26.3 °F 32 °F
Dew Point: 26.0 °F 22.0 °F 24.2 °F
Humidity: 84 % 57 % 74 %
Wind Speed: 5.0 mph 0.0 mph 1.2 mph
Wind Gust: 12.0 mph - -
Wind:- - NE
Pressure: 30.34 in 30.19 in -
Precipitation: 0.00 in    
Historical Graphs
 
 
Tabular Data for November 6, 2017
Time Temperature Dew Point Pressure Wind Wind Speed Wind Gust Humidity Rainfall Rate (Hourly)
00:01 28.4 °F 23.0 °F 30.19 in North 4.0 mph 8.0 mph 80 % 0.00 in
00:16 28.3 °F 23.0 °F 30.19 in Calm   4.0 mph 81 % 0.00 in
00:31 28.1 °F 23.0 °F 30.20 in Calm   4.0 mph 81 % 0.00 in
00:46 27.8 °F 23.0 °F 30.20 in ENE 3.0 mph 5.0 mph 81 % 0.00 in
01:01 27.7 °F 23.0 °F 30.19 in Calm   4.0 mph 81 % 0.00 in
01:16 27.5 °F 22.0 °F 30.21 in Calm   2.0 mph 80 % 0.00 in
01:31 27.5 °F 22.0 °F 30.21 in ENE 2.0 mph 4.0 mph 81 % 0.00 in
01:46 27.5 °F 22.0 °F 30.21 in Calm   2.0 mph 81 % 0.00 in
02:02 27.3 °F 22.0 °F 30.23 in Calm   3.0 mph 81 % 0.00 in
02:16 27.1 °F 22.0 °F 30.22 in Calm   4.0 mph 81 % 0.00 in
02:35 26.8 °F 22.0 °F 30.23 in Calm   2.0 mph 82 % 0.00 in
02:50 26.6 °F 22.0 °F 30.24 in Calm   2.0 mph 82 % 0.00 in
03:05 26.4 °F 22.0 °F 30.24 in Calm   2.0 mph 83 % 0.00 in
03:20 26.3 °F 22.0 °F 30.24 in Calm   3.0 mph 83 % 0.00 in
03:35 26.4 °F 22.0 °F 30.24 in Calm     84 % 0.00 in
03:50 26.5 °F 22.0 °F 30.24 in Calm   3.0 mph 84 % 0.00 in
04:05 26.5 °F 22.0 °F 30.23 in NE 1.0 mph 3.0 mph 84 % 0.00 in
04:20 26.6 °F 22.0 °F 30.24 in Calm   3.0 mph 84 % 0.00 in
04:35 26.6 °F 22.0 °F 30.25 in Calm   3.0 mph 84 % 0.00 in
04:50 26.7 °F 23.0 °F 30.26 in Calm   4.0 mph 84 % 0.00 in
05:05 26.9 °F 23.0 °F 30.25 in North 1.0 mph 2.0 mph 84 % 0.00 in
05:20 27.0 °F 23.0 °F 30.26 in Calm   6.0 mph 84 % 0.00 in
05:35 27.2 °F 23.0 °F 30.26 in Calm   3.0 mph 84 % 0.00 in
05:50 27.3 °F 23.0 °F 30.28 in North 1.0 mph 2.0 mph 84 % 0.00 in
06:05 27.4 °F 23.0 °F 30.27 in North 1.0 mph 4.0 mph 84 % 0.00 in
06:20 27.5 °F 23.0 °F 30.28 in Calm   3.0 mph 83 % 0.00 in
06:35 27.6 °F 23.0 °F 30.27 in ENE 4.0 mph 6.0 mph 83 % 0.00 in
06:50 27.7 °F 23.0 °F 30.29 in North 3.0 mph 6.0 mph 82 % 0.00 in
07:05 27.8 °F 23.0 °F 30.30 in ENE 3.0 mph 6.0 mph 82 % 0.00 in
07:20 27.8 °F 23.0 °F 30.30 in Calm   5.0 mph 82 % 0.00 in
07:35 27.9 °F 23.0 °F 30.30 in North 2.0 mph 5.0 mph 82 % 0.00 in
07:50 28.0 °F 23.0 °F 30.31 in Calm   8.0 mph 82 % 0.00 in
08:05 28.3 °F 24.0 °F 30.32 in North 3.0 mph 4.0 mph 82 % 0.00 in
08:20 28.5 °F 23.0 °F 30.32 in Calm   5.0 mph 81 % 0.00 in
08:35 28.8 °F 24.0 °F 30.32 in Calm   6.0 mph 81 % 0.00 in
08:51 28.9 °F 23.0 °F 30.34 in North 3.0 mph 5.0 mph 80 % 0.00 in
09:06 30.3 °F 25.0 °F 30.34 in NNE 3.0 mph 6.0 mph 79 % 0.00 in
09:21 31.0 °F 24.0 °F 30.33 in ENE 2.0 mph 7.0 mph 76 % 0.00 in
09:36 31.2 °F 24.0 °F 30.33 in East 3.0 mph 12.0 mph 75 % 0.00 in
09:51 31.4 °F 24.0 °F 30.32 in East 1.0 mph 9.0 mph 75 % 0.00 in
10:06 31.7 °F 25.0 °F 30.32 in NNE 4.0 mph 8.0 mph 75 % 0.00 in
10:21 32.0 °F 25.0 °F 30.33 in ENE 1.0 mph 7.0 mph 75 % 0.00 in
10:36 32.3 °F 25.0 °F 30.32 in ENE 3.0 mph 6.0 mph 74 % 0.00 in
10:46 32.0 °F 25.0 °F 30.33 in ENE 2.0 mph 6.0 mph 74 % 0.00 in
11:01 32.8 °F 25.0 °F 30.32 in NNE 4.0 mph 6.0 mph 74 % 0.00 in
11:16 33.0 °F 26.0 °F 30.31 in NE 2.0 mph 7.0 mph 74 % 0.00 in
11:31 33.0 °F 25.0 °F 30.30 in East 4.0 mph 8.0 mph 73 % 0.00 in
11:46 33.8 °F 25.0 °F 30.28 in ENE 2.0 mph 9.0 mph 71 % 0.00 in
12:02 34.2 °F 25.0 °F 30.28 in NE 2.0 mph 7.0 mph 70 % 0.00 in
12:17 35.1 °F 26.0 °F 30.27 in ENE 2.0 mph 6.0 mph 70 % 0.00 in
12:32 35.4 °F 26.0 °F 30.27 in NE 1.0 mph 5.0 mph 68 % 0.00 in
12:47 35.7 °F 26.0 °F 30.26 in NNE 2.0 mph 4.0 mph 67 % 0.00 in
13:02 35.9 °F 25.0 °F 30.26 in ENE 1.0 mph 4.0 mph 66 % 0.00 in
13:17 36.3 °F 25.0 °F 30.26 in ENE 2.0 mph 5.0 mph 64 % 0.00 in
13:32 36.7 °F 26.0 °F 30.26 in Calm   5.0 mph 65 % 0.00 in
13:47 37.2 °F 26.0 °F 30.26 in Calm   3.0 mph 64 % 0.00 in
14:02 37.7 °F 26.0 °F 30.26 in Calm   6.0 mph 63 % 0.00 in
14:17 37.9 °F 25.0 °F 30.26 in Calm   6.0 mph 61 % 0.00 in
14:32 38.3 °F 25.0 °F 30.25 in NNE 2.0 mph 4.0 mph 59 % 0.00 in
14:47 38.7 °F 25.0 °F 30.25 in North 2.0 mph 5.0 mph 59 % 0.00 in
15:02 38.6 °F 24.0 °F 30.25 in ENE 5.0 mph 5.0 mph 57 % 0.00 in
15:17 38.7 °F 24.0 °F 30.24 in ENE 1.0 mph 6.0 mph 57 % 0.00 in
15:32 38.9 °F 25.0 °F 30.24 in ENE 1.0 mph 5.0 mph 57 % 0.00 in
15:47 39.0 °F 26.0 °F 30.24 in NNE 2.0 mph 6.0 mph 59 % 0.00 in
16:02 38.9 °F 25.0 °F 30.25 in ENE 2.0 mph 6.0 mph 59 % 0.00 in
16:17 38.7 °F 24.0 °F 30.24 in East 1.0 mph 6.0 mph 57 % 0.00 in
16:32 38.4 °F 25.0 °F 30.24 in Calm   3.0 mph 59 % 0.00 in
16:47 38.0 °F 25.0 °F 30.25 in Calm   4.0 mph 61 % 0.00 in
17:02 37.3 °F 26.0 °F 30.25 in NNE 2.0 mph 6.0 mph 63 % 0.00 in
17:17 36.8 °F 25.0 °F 30.26 in ENE 2.0 mph 6.0 mph 63 % 0.00 in
17:32 36.3 °F 25.0 °F 30.27 in Calm   5.0 mph 63 % 0.00 in
17:47 35.9 °F 25.0 °F 30.27 in NE 4.0 mph 6.0 mph 64 % 0.00 in
18:02 35.6 °F 25.0 °F 30.28 in North 2.0 mph 3.0 mph 65 % 0.00 in
18:17 35.4 °F 25.0 °F 30.29 in Calm   2.0 mph 66 % 0.00 in
18:32 35.3 °F 25.0 °F 30.29 in Calm   3.0 mph 66 % 0.00 in
18:47 35.2 °F 25.0 °F 30.30 in Calm   4.0 mph 67 % 0.00 in
19:02 35.1 °F 25.0 °F 30.30 in Calm   4.0 mph 67 % 0.00 in
19:17 35.1 °F 25.0 °F 30.29 in NNE 2.0 mph 3.0 mph 67 % 0.00 in
19:32 35.1 °F 25.0 °F 30.30 in Calm   5.0 mph 68 % 0.00 in
19:47 34.9 °F 26.0 °F 30.30 in NE 4.0 mph 5.0 mph 69 % 0.00 in
20:03 34.6 °F 26.0 °F 30.30 in NE 2.0 mph 5.0 mph 70 % 0.00 in
20:17 34.3 °F 25.0 °F 30.30 in NE 2.0 mph 6.0 mph 70 % 0.00 in
20:32 33.9 °F 25.0 °F 30.29 in Calm   7.0 mph 71 % 0.00 in
20:47 33.4 °F 25.0 °F 30.28 in Calm   5.0 mph 72 % 0.00 in
21:02 33.1 °F 25.0 °F 30.29 in Calm   4.0 mph 73 % 0.00 in
21:18 32.8 °F 25.0 °F 30.30 in NNE 2.0 mph 3.0 mph 74 % 0.00 in
21:32 32.6 °F 26.0 °F 30.32 in NNE 2.0 mph 4.0 mph 75 % 0.00 in
21:47 32.5 °F 26.0 °F 30.32 in Calm   4.0 mph 76 % 0.00 in
22:02 32.3 °F 26.0 °F 30.33 in NE 1.0 mph 4.0 mph 76 % 0.00 in
22:17 32.2 °F 26.0 °F 30.33 in NNE 2.0 mph 5.0 mph 77 % 0.00 in
22:45 31.7 °F 25.0 °F 30.34 in Calm   6.0 mph 77 % 0.00 in
23:00 31.5 °F 25.0 °F 30.34 in ENE 1.0 mph 8.0 mph 77 % 0.00 in
23:15 31.4 °F 25.0 °F 30.33 in Calm   3.0 mph 77 % 0.00 in
23:30 31.3 °F 25.0 °F 30.32 in Calm   2.0 mph 78 % 0.00 in
Des Moines Weather and Climate
Compliments of Weather Underground - 3 mb

Script developed by  Jim McMurry - jmcmurry@mwt.net Adapted for the template by  Wim van der Kuil - Leuven-Template.eu

You find our weather info also at:

Weather Underground

Equipment we use:

Weather-station
Davis VP2 Plus

Weather-program
Davis Weatherlink.Com

Weather-server
iMac (Retina 4K, 21.5-inch, Late 2015)

Provider
Hostmonster.com

Davis VP2 Plus

Davis Weatherlink.Com

iMac (Retina 4K, 21.5-inch, Late 2015)

Hostmonster.com